• Join FlightAware (Why Join?)
  • Login
  • US Flag 
03:28PM EDT


 

Airport Tracker/Info


-or-


 

Live Flight TrackerFlight Track Log ✈ KAP4711 ✈ 02-Jul-2013 ✈ TJSJ / SJU - TQPF / AXA

Flight Track Log - Related Links

Times and Time Zones

All times are in EDT time to prevent confusion due to time zone crossing. See the KAP4711 flight status page for this flight to view local times or setup timezone preferences in your user account.

Time Position Orientation Groundspeed Altitude Reporting Facility
EDT Latitude Longitude Course Direction KTS MPH feet Rate Location/Type
01:28PM 18.4167 -65.9667 62° Northeast 110 127 1,000  Level San Juan Center
01:29PM 18.4333 -65.9333 62° Northeast 110 127 1,500 480 Climbing San Juan Center
01:30PM 18.4333 -65.9000 90° East 120 138 2,000 600 Climbing San Juan Center
01:31PM 18.4333 -65.8833 90° East 100 115 2,700 600 Climbing San Juan Center
01:32PM 18.4333 -65.8500 90° East 110 127 3,300 540 Climbing San Juan Center
01:33PM 18.4333 -65.8167 90° East 120 138 3,900 540 Climbing San Juan Center
01:34PM 18.4333 -65.7833 90° East 110 127 4,400 480 Climbing San Juan Center
01:35PM 18.4167 -65.7333 109° East 120 138 4,900 480 Climbing San Juan Center
01:36PM 18.4167 -65.7000 90° East 120 138 5,400 480 Climbing San Juan Center
01:37PM 18.4167 -65.6667 90° East 130 150 5,900 420 Climbing San Juan Center
01:38PM 18.4167 -65.6333 90° East 130 150 6,300 360 Climbing San Juan Center
01:39PM 18.4167 -65.5833 90° East 150 173 6,700 300 Climbing San Juan Center
01:40PM 18.4167 -65.5500 90° East 140 161 7,000 120 Climbing San Juan Center
01:41PM 18.4167 -65.5000 90° East 170 196 7,000  Level San Juan Center
01:42PM 18.4167 -65.4667 90° East 160 184 7,000  Level San Juan Center
01:43PM 18.4167 -65.4167 90° East 160 184 7,000  Level San Juan Center
01:44PM 18.4167 -65.3667 90° East 170 196 7,000  Level San Juan Center
01:45PM 18.4167 -65.3167 90° East 160 184 7,000  Level San Juan Center
01:46PM 18.4167 -65.2667 90° East 160 184 7,000  Level San Juan Center
01:47PM 18.4000 -65.2167 109° East 160 184 7,000  Level San Juan Center
01:48PM 18.4000 -65.1667 90° East 160 184 7,000  Level San Juan Center
01:49PM 18.4000 -65.1333 90° East 160 184 7,000  Level San Juan Center
01:51PM 18.4000 -65.0833 90° East 160 184 7,000  Level San Juan Center
01:52PM 18.4000 -65.0333 90° East 150 173 7,000  Level San Juan Center
01:53PM 18.4000 -64.9833 90° East 160 184 7,000  Level San Juan Center
01:54PM 18.4000 -64.9333 90° East 160 184 7,000  Level San Juan Center
01:55PM 18.4000 -64.8833 90° East 160 184 7,000  Level San Juan Center
01:56PM 18.4000 -64.8500 90° East 160 184 7,000  Level San Juan Center
01:57PM 18.4000 -64.8000 90° East 150 173 7,000  Level San Juan Center
01:58PM 18.4000 -64.7500 90° East 150 173 7,000  Level San Juan Center
01:59PM 18.3833 -64.7167 118° Southeast 140 161 7,000  Level San Juan Center
02:00PM 18.4000 -64.6667 71° East 150 173 7,000  Level San Juan Center
02:01PM 18.4000 -64.6167 90° East 140 161 7,000  Level San Juan Center
02:02PM 18.4000 -64.5833 90° East 150 173 7,000  Level San Juan Center
02:03PM 18.4000 -64.5333 90° East 140 161 7,000  Level San Juan Center
02:04PM 18.4000 -64.5000 90° East 160 184 7,000  Level San Juan Center
02:05PM 18.4000 -64.4500 90° East 150 173 7,000  Level San Juan Center
02:06PM 18.4000 -64.4000 90° East 160 184 7,000  Level San Juan Center
02:07PM 18.4000 -64.3667 90° East 160 184 7,000  Level San Juan Center
02:08PM 18.3833 -64.3167 109° East 150 173 7,000  Level San Juan Center
02:09PM 18.3833 -64.2667 90° East 150 173 7,000  Level San Juan Center
02:10PM 18.3833 -64.2333 90° East 150 173 7,000  Level San Juan Center
02:11PM 18.4000 -64.1833 71° East 150 173 7,000  Level San Juan Center
02:12PM 18.3833 -64.1500 118° Southeast 150 173 7,000  Level San Juan Center
02:13PM 18.3833 -64.1000 90° East 150 173 7,000  Level San Juan Center
02:14PM 18.4000 -64.0667 62° Northeast 130 150 7,000  Level San Juan Center
02:15PM 18.3667 -64.0167 125° Southeast 130 150 7,000  Level San Juan Center
02:16PM 18.3500 -63.9833 118° Southeast 140 161 7,000 -60 Level San Juan Center
02:17PM 18.3333 -63.9333 109° East 150 173 6,900  Descending San Juan Center
02:18PM 18.3167 -63.9000 118° Southeast 150 173 7,000  Climbing San Juan Center
02:19PM 18.3167 -63.8500 90° East 150 173 7,000 -120 Level San Juan Center
02:20PM 18.3000 -63.8167 118° Southeast 160 184 6,800 -300 Descending San Juan Center
02:21PM 18.3000 -63.7667 90° East 160 184 6,400 -420 Descending San Juan Center
02:22PM 18.3000 -63.7167 90° East 160 184 6,000 -540 Descending San Juan Center
02:23PM 18.2833 -63.6667 109° East 160 184 5,400 -600 Descending San Juan Center
02:25PM 18.2602 -63.5931 108° East  Level FlightAware Approximate
02:32PM 18.2301 -63.2990 122° Southeast  Level Estimated
02:33PM 18.1919 -63.2862 162° South  Level FlightAware Approximate
02:34PM 18.1943 -63.2441 125° Southeast  Level Estimated
02:35PM 18.1622 -63.2187 143° Southeast  Level FlightAware Approximate
02:36PM 18.1301 -63.1933 143° Southeast  Level FlightAware Approximate
02:37PM 18.0981 -63.1679 143° Southeast  Level FlightAware Approximate
02:38PM 18.1264 -63.1380 25° Northeast  Level Estimated
02:39PM 18.1305 -63.0960 84° East  Level FlightAware Approximate
02:40PM 18.1346 -63.0539 84° East  Level FlightAware Approximate
02:41PM 18.1644 -63.0589 13° North  Level FlightAware Approximate
02:42PM 18.2000 -63.0500 13° North  Level FlightAware Approximate
02:43PM 18.2048 -63.0551 13° North  Level Estimated
02:44PM 18.2000 -63.0500 13° North  Level FlightAware Approximate
02:45PM 18.2048 -63.0551 13° North  Level Estimated
02:46PM 18.2000 -63.0500 13° North  Level FlightAware Approximate
02:47PM 18.2048 -63.0551 13° North  Level Estimated
02:48PM 18.2000 -63.0500 13° North  Level FlightAware Approximate
02:49PM 18.2048 -63.0551 13° North  Level Estimated
02:50PM 18.2000 -63.0500 13° North  Level FlightAware Approximate
02:51PM 18.2048 -63.0551 13° North  Level Estimated
02:52PM 18.2000 -63.0500 13° North  Level FlightAware Approximate
02:53PM 18.2048 -63.0551 13° North  Level Estimated
02:54PM 18.2000 -63.0500 13° North  Level FlightAware Approximate
02:55PM 18.2048 -63.0551 13° North  Level Estimated
02:56PM 18.2000 -63.0500 13° North  Level FlightAware Approximate
02:57PM 18.2048 -63.0551 13° North  Level Estimated
02:58PM 18.2000 -63.0500 13° North  Level FlightAware Approximate